Time;durP1;ratioP1;P1;durP2;ratioP2;P2;SDS_P1;SDS_P2;PMS_P1;PMS_P2;Temp;Humidity;BMP_temperature;BMP_pressure;BME280_temperature;BME280_humidity;BME280_pressure;Samples;Min_cycle;Max_cycle;Signal;HPM_P1;HPM_P2
2021/03/27 00:00:36;;;;;;;6.55;2.88;;;;;;;4.40;100.00;100807.06;5082128;28;20051;-60
2021/03/27 00:03:13;;;;;;;5.43;2.40;;;;;;;4.49;100.00;100806.28;5085293;28;20127;-58
2021/03/27 00:05:45;;;;;;;6.28;2.88;;;;;;;4.48;100.00;100804.63;5082691;28;20046;-59
2021/03/27 00:08:16;;;;;;;10.55;3.42;;;;;;;4.37;100.00;100821.34;5081584;28;20453;-59
2021/03/27 00:10:50;;;;;;;8.93;3.95;;;;;;;4.34;100.00;100818.97;5079547;28;20430;-60
2021/03/27 00:13:26;;;;;;;8.93;3.40;;;;;;;4.48;100.00;100818.69;5083713;28;20078;-59
2021/03/27 00:16:00;;;;;;;7.70;2.78;;;;;;;4.53;100.00;100834.19;5082439;28;20044;-59
2021/03/27 00:18:35;;;;;;;8.77;3.03;;;;;;;4.59;100.00;100828.41;5082116;28;20036;-59
2021/03/27 00:21:05;;;;;;;7.85;3.65;;;;;;;4.66;100.00;100828.72;5084927;28;20063;-59
2021/03/27 00:23:35;;;;;;;10.18;3.45;;;;;;;4.62;100.00;100836.09;5081619;28;20458;-60
2021/03/27 00:26:06;;;;;;;8.70;3.30;;;;;;;4.52;100.00;100829.84;5082370;28;20043;-60
2021/03/27 00:28:36;;;;;;;9.13;4.45;;;;;;;4.58;100.00;100832.00;5076830;28;20375;-61
2021/03/27 00:31:09;;;;;;;10.55;3.80;;;;;;;4.54;100.00;100835.03;5085941;28;20051;-60
2021/03/27 00:33:38;;;;;;;9.80;3.80;;;;;;;4.46;100.00;100836.47;5085383;28;20044;-60
2021/03/27 00:36:10;;;;;;;14.63;4.18;;;;;;;4.40;100.00;100823.75;5082224;28;20328;-60
2021/03/27 00:38:39;;;;;;;9.02;3.63;;;;;;;4.42;100.00;100826.25;5079610;28;20040;-61
2021/03/27 00:41:10;;;;;;;11.18;3.10;;;;;;;4.31;100.00;100827.13;5082841;28;20040;-60
2021/03/27 00:43:41;;;;;;;12.38;4.05;;;;;;;4.46;100.00;100839.13;5080818;28;20347;-60
2021/03/27 00:46:10;;;;;;;8.10;2.55;;;;;;;4.35;100.00;100846.22;5084246;28;20036;-60
2021/03/27 00:48:42;;;;;;;11.00;2.63;;;;;;;4.41;100.00;100848.38;5078371;28;20044;-59
2021/03/27 00:51:16;;;;;;;8.93;2.50;;;;;;;4.40;100.00;100846.72;5082025;28;20041;-60
2021/03/27 00:53:47;;;;;;;14.02;2.40;;;;;;;4.42;100.00;100847.41;5085637;28;20055;-60
2021/03/27 00:56:18;;;;;;;8.85;2.60;;;;;;;4.52;100.00;100837.78;5082843;28;20032;-60
2021/03/27 00:58:49;;;;;;;8.00;2.20;;;;;;;4.39;100.00;100853.78;5082793;28;20056;-59
2021/03/27 01:01:18;;;;;;;4.75;2.10;;;;;;;4.39;100.00;100853.78;5087383;28;20358;-61
2021/03/27 01:03:50;;;;;;;7.53;2.38;;;;;;;4.30;100.00;100854.53;5087704;28;20402;-61
2021/03/27 01:06:21;;;;;;;9.63;2.28;;;;;;;4.30;100.00;100860.66;5088694;28;20094;-61
2021/03/27 01:08:50;;;;;;;11.13;2.20;;;;;;;4.26;100.00;100863.66;5082746;28;20040;-61
2021/03/27 01:11:21;;;;;;;7.50;2.78;;;;;;;4.27;100.00;100870.66;5086086;28;20040;-61
2021/03/27 01:13:51;;;;;;;9.75;2.63;;;;;;;4.08;100.00;100872.09;5083971;28;20339;-61
2021/03/27 01:16:21;;;;;;;8.27;2.47;;;;;;;4.22;100.00;100864.88;5087352;28;20032;-61
2021/03/27 01:18:52;;;;;;;7.25;2.15;;;;;;;4.12;100.00;100870.84;5084396;28;20404;-61
2021/03/27 01:21:25;;;;;;;8.25;2.80;;;;;;;4.17;100.00;100875.81;5088390;28;20431;-61
2021/03/27 01:23:55;;;;;;;6.45;1.88;;;;;;;4.04;100.00;100877.72;5089749;28;20303;-61
2021/03/27 01:26:24;;;;;;;10.45;2.83;;;;;;;3.98;100.00;100876.38;5087104;28;20047;-61
2021/03/27 01:28:55;;;;;;;13.95;3.50;;;;;;;3.95;100.00;100889.84;5083236;28;20051;-61
2021/03/27 01:31:30;;;;;;;8.25;3.97;;;;;;;3.90;100.00;100884.09;5087797;28;20047;-61
2021/03/27 01:34:00;;;;;;;11.13;2.38;;;;;;;4.03;100.00;100882.16;5085090;28;20375;-61
2021/03/27 01:36:35;;;;;;;14.93;3.60;;;;;;;3.94;100.00;100875.81;5087861;28;20044;-61
2021/03/27 01:39:09;;;;;;;9.65;3.40;;;;;;;4.01;100.00;100886.72;5080776;28;20471;-61
2021/03/27 01:41:44;;;;;;;7.35;2.88;;;;;;;4.19;100.00;100894.19;5083721;28;20044;-61
2021/03/27 01:44:18;;;;;;;8.82;3.13;;;;;;;4.28;100.00;100888.16;5082882;28;20052;-61
2021/03/27 01:47:06;;;;;;;11.35;3.75;;;;;;;4.36;100.00;100890.22;5084145;28;20431;-61
2021/03/27 01:49:48;;;;;;;13.65;3.05;;;;;;;4.35;100.00;100884.06;5085520;28;20300;-61
2021/03/27 01:52:23;;;;;;;11.88;3.38;;;;;;;4.44;100.00;100882.53;5086414;28;20280;-61
2021/03/27 01:54:57;;;;;;;11.35;4.22;;;;;;;4.37;100.00;100884.81;5085971;28;20319;-61
2021/03/27 01:57:29;;;;;;;10.00;3.92;;;;;;;4.44;100.00;100877.25;5085260;28;20463;-61
2021/03/27 01:59:58;;;;;;;16.45;3.53;;;;;;;4.54;100.00;100888.78;5080274;28;20044;-61
2021/03/27 02:02:43;;;;;;;11.90;4.32;;;;;;;4.33;100.00;100880.72;5088222;28;20040;-60
2021/03/27 02:05:13;;;;;;;11.88;4.47;;;;;;;4.38;100.00;100886.50;5083904;28;20040;-61
2021/03/27 02:07:46;;;;;;;8.77;4.43;;;;;;;4.42;100.00;100885.31;5085285;28;20044;-60
2021/03/27 02:10:21;;;;;;;12.35;4.00;;;;;;;4.28;100.00;100888.16;5083576;28;20048;-61
2021/03/27 02:12:55;;;;;;;;;;;;;;;4.19;100.00;100888.91;5083674;28;20420;-61
2021/03/27 02:15:31;;;;;;;10.30;4.63;;;;;;;4.20;100.00;100894.06;5086932;28;19978;-61
2021/03/27 02:18:03;;;;;;;10.63;3.53;;;;;;;4.20;100.00;100886.13;5085517;28;20040;-61
2021/03/27 02:21:01;;;;;;;12.85;4.53;;;;;;;4.24;100.00;100886.72;5082649;28;20050;-61
2021/03/27 02:23:40;;;;;;;14.95;4.30;;;;;;;4.25;100.00;100878.69;5068947;28;20064;-61
2021/03/27 02:26:32;;;;;;;18.30;4.82;;;;;;;4.30;100.00;100888.91;5084093;28;20337;-61
2021/03/27 02:29:27;;;;;;;15.88;5.00;;;;;;;4.36;100.00;100891.06;5076400;28;20044;-61
2021/03/27 02:32:01;;;;;;;13.43;3.63;;;;;;;4.38;100.00;100897.09;5085357;28;20067;-60
2021/03/27 02:34:35;;;;;;;12.45;3.70;;;;;;;4.42;100.00;100893.22;5086833;28;20394;-61
2021/03/27 02:37:04;;;;;;;17.90;5.32;;;;;;;4.39;100.00;100890.81;5087794;28;20040;-61
2021/03/27 02:39:39;;;;;;;11.65;4.32;;;;;;;4.54;100.00;100903.81;5080242;28;20040;-60
2021/03/27 02:42:13;;;;;;;15.63;3.78;;;;;;;4.47;100.00;100898.16;5081327;28;20040;-60
2021/03/27 02:44:44;;;;;;;11.13;2.85;;;;;;;4.57;100.00;100903.56;5082526;28;20576;-60
2021/03/27 02:47:32;;;;;;;14.15;3.75;;;;;;;4.60;100.00;100903.31;5081272;28;20040;-61
2021/03/27 02:50:09;;;;;;;9.55;2.83;;;;;;;4.58;100.00;100915.78;5071547;28;20056;-60
2021/03/27 02:52:46;;;;;;;9.80;3.38;;;;;;;4.60;100.00;100905.94;5083509;28;20044;-61
2021/03/27 02:55:19;;;;;;;8.20;3.17;;;;;;;4.57;100.00;100925.53;5084321;28;20048;-60
2021/03/27 02:57:54;;;;;;;13.57;2.70;;;;;;;4.46;100.00;100912.31;5083581;28;20048;-60
2021/03/27 03:00:24;;;;;;;12.43;3.05;;;;;;;4.31;100.00;100920.50;5113821;27;20423;-60
2021/03/27 03:02:58;;;;;;;9.18;2.70;;;;;;;4.30;100.00;100923.28;5086654;28;20040;-60
2021/03/27 03:05:33;;;;;;;10.00;2.00;;;;;;;4.25;100.00;100931.56;5086695;28;20048;-60
2021/03/27 03:08:09;;;;;;;10.07;3.20;;;;;;;4.28;100.00;100925.19;5085314;28;20036;-61
2021/03/27 03:10:39;;;;;;;14.60;4.95;;;;;;;4.27;100.00;100939.38;5082263;28;20044;-61
2021/03/27 03:13:17;;;;;;;9.30;2.55;;;;;;;4.25;100.00;100931.56;5082199;28;20043;-60
2021/03/27 03:15:49;;;;;;;10.93;2.80;;;;;;;4.19;100.00;100933.84;5084843;28;20123;-61
2021/03/27 03:18:24;;;;;;;9.43;3.28;;;;;;;4.23;100.00;100943.22;5079463;28;20416;-61
2021/03/27 03:20:56;;;;;;;12.05;3.13;;;;;;;4.30;100.00;100944.44;5084041;28;20064;-60
2021/03/27 03:23:30;;;;;;;17.75;2.67;;;;;;;4.33;100.00;100954.75;5082714;28;20044;-60
2021/03/27 03:26:04;;;;;;;6.68;3.08;;;;;;;4.27;100.00;100950.78;5080779;28;20259;-60
2021/03/27 03:28:41;;;;;;;13.65;2.50;;;;;;;4.36;100.00;100951.88;5080138;28;20332;-60
2021/03/27 03:31:16;;;;;;;18.45;3.88;;;;;;;4.39;100.00;100974.59;5084707;28;20043;-60
2021/03/27 03:34:17;;;;;;;12.85;2.13;;;;;;;4.53;100.00;100970.88;5078714;28;20048;-61
2021/03/27 03:36:54;;;;;;;21.42;5.00;;;;;;;4.60;100.00;100977.38;5017221;28;20056;-61
2021/03/27 03:39:36;;;;;;;14.70;2.83;;;;;;;4.60;100.00;101003.81;5070235;28;20044;-60
2021/03/27 03:42:13;;;;;;;11.35;2.65;;;;;;;4.52;100.00;101008.88;5080572;28;20138;-60
2021/03/27 03:44:53;;;;;;;11.98;2.35;;;;;;;4.62;100.00;101000.09;5083187;28;20047;-59
2021/03/27 03:47:28;;;;;;;10.07;2.22;;;;;;;4.50;100.00;101018.75;5086002;28;20040;-61
2021/03/27 03:50:17;;;;;;;10.43;2.50;;;;;;;4.45;100.00;101019.94;5080896;28;20119;-61
2021/03/27 03:53:03;;;;;;;12.73;2.15;;;;;;;4.28;100.00;101025.66;5081110;28;20321;-60
2021/03/27 03:55:37;;;;;;;7.32;1.67;;;;;;;4.16;100.00;101018.69;5084638;28;20044;-60
2021/03/27 03:58:17;;;;;;;3.15;1.30;;;;;;;4.16;100.00;101022.16;5083844;28;20040;-60
2021/03/27 04:00:52;;;;;;;8.70;2.10;;;;;;;4.11;100.00;101011.06;5082426;28;20247;-60
2021/03/27 04:03:26;;;;;;;7.50;1.38;;;;;;;4.24;100.00;101016.25;5085037;28;20166;-61
2021/03/27 04:05:58;;;;;;;13.43;2.60;;;;;;;4.09;100.00;101021.75;5082674;28;20470;-61
2021/03/27 04:08:30;;;;;;;8.45;2.88;;;;;;;3.95;100.00;101014.91;5078533;28;20375;-61
2021/03/27 04:11:02;;;;;;;6.55;2.50;;;;;;;3.91;100.00;101033.72;5081691;28;20117;-59
2021/03/27 04:13:34;;;;;;;7.80;1.90;;;;;;;3.89;100.00;101044.41;5080322;28;20046;-59
2021/03/27 04:16:05;;;;;;;3.95;1.63;;;;;;;3.78;100.00;101045.22;5083777;28;20048;-59
2021/03/27 04:18:35;;;;;;;11.35;2.15;;;;;;;3.71;100.00;101049.25;5080621;28;20036;-59
2021/03/27 04:21:07;;;;;;;13.60;1.73;;;;;;;3.84;100.00;101048.34;5084273;28;20479;-58
2021/03/27 04:23:39;;;;;;;13.15;2.20;;;;;;;3.84;100.00;101061.56;5084612;28;20436;-57
2021/03/27 04:26:47;;;;;;;6.88;2.03;;;;;;;3.90;100.00;101074.34;5080894;28;20372;-58
2021/03/27 04:29:30;;;;;;;7.85;1.90;;;;;;;3.87;100.00;101088.59;5071892;28;20052;-60
2021/03/27 04:32:22;;;;;;;8.73;2.50;;;;;;;3.89;100.00;101107.00;5080138;28;20043;-59
2021/03/27 04:34:51;;;;;;;9.32;2.90;;;;;;;3.99;100.00;101099.22;5069968;28;20435;-59
2021/03/27 04:37:26;;;;;;;9.25;1.35;;;;;;;4.17;100.00;101071.44;5087959;28;20176;-59
2021/03/27 04:39:56;;;;;;;4.72;2.25;;;;;;;4.13;100.00;101070.78;5080841;28;20040;-59
2021/03/27 04:42:29;;;;;;;7.03;1.58;;;;;;;4.01;100.00;101077.00;5082322;28;20051;-60
2021/03/27 04:45:05;;;;;;;5.15;1.40;;;;;;;3.92;100.00;101073.25;5084588;28;20044;-59
2021/03/27 04:47:35;;;;;;;3.97;1.67;;;;;;;3.78;100.00;101071.63;5084707;28;20043;-59
2021/03/27 04:50:11;;;;;;;7.25;1.48;;;;;;;3.62;100.00;101068.41;5078538;28;20391;-59
2021/03/27 04:52:48;;;;;;;5.78;1.35;;;;;;;3.44;100.00;101076.72;5081914;28;20028;-59
2021/03/27 04:55:25;;;;;;;6.88;1.90;;;;;;;3.36;100.00;101086.13;5082154;28;20515;-59
2021/03/27 04:58:08;;;;;;;8.88;1.70;;;;;;;3.34;100.00;101088.06;5080756;28;20044;-59
2021/03/27 05:00:50;;;;;;;5.90;1.40;;;;;;;3.47;100.00;101117.06;5079515;28;20127;-59
2021/03/27 05:03:22;;;;;;;9.43;2.20;;;;;;;3.45;100.00;101088.13;5082719;28;20036;-59
2021/03/27 05:05:55;;;;;;;5.68;1.58;;;;;;;3.42;100.00;101110.31;5082796;28;20097;-59
2021/03/27 05:08:38;;;;;;;7.88;2.05;;;;;;;3.50;100.00;101122.97;5081541;28;20040;-59
2021/03/27 05:11:25;;;;;;;8.82;2.20;;;;;;;3.54;100.00;101131.50;5081605;28;20044;-59
2021/03/27 05:14:01;;;;;;;5.40;1.92;;;;;;;3.51;100.00;101132.56;5079574;28;20364;-59
2021/03/27 05:16:30;;;;;;;8.63;2.15;;;;;;;3.48;100.00;101139.88;5084568;28;20313;-59
2021/03/27 05:19:02;;;;;;;5.05;1.88;;;;;;;3.18;100.00;101147.19;5078647;28;20048;-59
2021/03/27 05:21:42;;;;;;;5.30;1.75;;;;;;;3.15;100.00;101151.84;5081760;28;20040;-61
2021/03/27 05:24:19;;;;;;;8.35;3.83;;;;;;;2.98;100.00;101161.78;5081453;28;20064;-59
2021/03/27 05:26:55;;;;;;;8.73;2.17;;;;;;;2.84;100.00;101164.53;5081464;28;20351;-59
2021/03/27 05:29:58;;;;;;;7.97;2.10;;;;;;;2.86;100.00;101166.09;5079341;28;20051;-60
2021/03/27 05:32:36;;;;;;;14.57;2.25;;;;;;;2.99;100.00;101174.03;5075081;28;20060;-59
2021/03/27 05:35:11;;;;;;;10.40;2.80;;;;;;;3.06;100.00;101180.56;5081751;28;20052;-59
2021/03/27 05:37:44;;;;;;;5.75;1.90;;;;;;;3.01;100.00;101181.84;5079624;28;20041;-59
2021/03/27 05:40:44;;;;;;;8.38;2.78;;;;;;;2.96;100.00;101187.41;5081397;28;20047;-59
2021/03/27 05:43:22;;;;;;;9.48;2.75;;;;;;;2.97;100.00;101186.47;5052103;28;20052;-59
2021/03/27 05:46:37;;;;;;;8.50;2.67;;;;;;;3.05;100.00;101197.34;5085588;28;20386;-59
2021/03/27 05:49:36;;;;;;;9.32;2.30;;;;;;;3.03;100.00;101201.88;5015715;28;20049;-59
2021/03/27 05:52:28;;;;;;;10.10;2.80;;;;;;;3.14;100.00;101209.06;5079326;28;20067;-59
2021/03/27 05:55:21;;;;;;;11.88;2.70;;;;;;;3.22;100.00;101211.19;5081710;28;20044;-59
2021/03/27 05:58:05;;;;;;;15.95;2.40;;;;;;;3.22;100.00;101216.47;5077419;28;20051;-59
2021/03/27 06:00:51;;;;;;;12.77;3.20;;;;;;;3.38;100.00;101221.53;5083943;28;20340;-59
2021/03/27 06:03:44;;;;;;;13.43;3.00;;;;;;;3.53;100.00;101215.19;5082914;28;20040;-59
2021/03/27 06:06:28;;;;;;;5.60;2.25;;;;;;;3.59;100.00;101216.56;5078865;28;20064;-59
2021/03/27 06:09:29;;;;;;;8.60;3.58;;;;;;;3.56;100.00;101227.34;5076426;28;20040;-59
2021/03/27 06:12:20;;;;;;;13.88;2.35;;;;;;;3.69;100.00;101230.78;5078597;28;20244;-59
2021/03/27 06:15:06;;;;;;;11.45;2.45;;;;;;;3.61;100.00;101235.75;5077728;28;20040;-59
2021/03/27 06:17:39;;;;;;;7.20;2.08;;;;;;;3.84;100.00;101223.59;5080339;28;20052;-61
2021/03/27 06:20:20;;;;;;;14.35;2.30;;;;;;;3.95;100.00;101230.72;5082682;28;20457;-61
2021/03/27 06:23:36;;;;;;;17.42;4.20;;;;;;;3.98;100.00;101246.34;5082774;28;20047;-61
2021/03/27 06:26:38;;;;;;;14.45;5.00;;;;;;;4.06;100.00;101259.88;5080387;28;20347;-61
2021/03/27 06:30:10;;;;;;;11.60;4.18;;;;;;;4.36;100.00;101250.69;5073694;28;20363;-59
2021/03/27 06:33:10;;;;;;;8.77;2.13;;;;;;;4.01;100.00;101247.94;5083707;28;20043;-61
2021/03/27 06:35:59;;;;;;;14.00;2.58;;;;;;;3.97;100.00;101261.38;5077653;28;20049;-61
2021/03/27 06:39:05;;;;;;;12.02;2.38;;;;;;;4.29;100.00;101254.72;5080700;28;20043;-61
2021/03/27 06:41:49;;;;;;;15.93;2.78;;;;;;;4.57;100.00;101258.84;5084960;28;20044;-59
2021/03/27 06:44:33;;;;;;;13.65;2.83;;;;;;;4.53;100.00;101259.19;5077791;28;20041;-59
2021/03/27 06:47:17;;;;;;;8.70;2.85;;;;;;;4.91;100.00;101268.72;5077426;28;20436;-59
2021/03/27 06:50:06;;;;;;;15.25;3.97;;;;;;;5.12;100.00;101275.03;5078011;28;20052;-59
2021/03/27 06:52:46;;;;;;;11.52;3.15;;;;;;;5.26;100.00;101278.44;5074759;28;20052;-59
2021/03/27 06:55:31;;;;;;;14.75;3.00;;;;;;;5.54;100.00;101278.97;5081678;28;20055;-59
2021/03/27 06:58:47;;;;;;;20.98;4.03;;;;;;;5.62;100.00;101288.00;5079025;28;20435;-59
2021/03/27 07:01:50;;;;;;;13.00;2.65;;;;;;;5.36;100.00;101282.09;5078147;28;20051;-59
2021/03/27 07:04:49;;;;;;;9.65;2.65;;;;;;;4.86;100.00;101297.34;5084952;28;20362;-61
2021/03/27 07:07:34;;;;;;;5.95;2.08;;;;;;;4.87;100.00;101291.91;5038639;28;20047;-61
2021/03/27 07:10:52;;;;;;;7.57;2.47;;;;;;;4.80;100.00;101291.53;5077711;28;20048;-61
2021/03/27 07:13:32;;;;;;;9.35;3.22;;;;;;;4.83;100.00;101301.91;5023238;28;20052;-61
2021/03/27 07:16:12;;;;;;;10.27;2.40;;;;;;;5.42;100.00;101307.25;5080997;28;20048;-62
2021/03/27 07:18:55;;;;;;;8.98;3.22;;;;;;;5.37;100.00;101318.19;5082818;28;20153;-61
2021/03/27 07:21:45;;;;;;;12.40;3.70;;;;;;;5.88;100.00;101324.03;5084271;28;20048;-58
2021/03/27 07:24:25;;;;;;;10.00;2.78;;;;;;;5.83;100.00;101327.91;5081949;28;20370;-58
2021/03/27 07:27:35;;;;;;;10.35;2.42;;;;;;;5.63;100.00;101328.63;5081565;28;20044;-59
2021/03/27 07:30:23;;;;;;;13.38;2.75;;;;;;;5.45;100.00;101333.50;5080385;28;20052;-60
2021/03/27 07:33:26;;;;;;;11.85;3.22;;;;;;;5.49;100.00;101346.41;5084621;28;20240;-61
2021/03/27 07:36:33;;;;;;;4.57;1.85;;;;;;;5.77;100.00;101346.94;5079716;28;20218;-61
2021/03/27 07:39:20;;;;;;;6.67;2.27;;;;;;;5.83;100.00;101349.09;5080915;28;20262;-61
2021/03/27 07:42:20;;;;;;;10.68;2.85;;;;;;;5.95;100.00;101349.09;5082278;28;20451;-59
2021/03/27 07:45:00;;;;;;;10.30;2.90;;;;;;;6.05;100.00;101360.72;5057402;28;20044;-59
2021/03/27 07:47:50;;;;;;;10.80;2.55;;;;;;;6.45;100.00;101369.97;5084779;28;20044;-59
2021/03/27 07:50:36;;;;;;;6.82;2.10;;;;;;;6.28;100.00;101372.19;5081646;28;20367;-60
2021/03/27 07:53:25;;;;;;;7.80;2.28;;;;;;;6.16;100.00;101367.81;5080612;28;20332;-58
2021/03/27 07:56:37;;;;;;;15.65;3.78;;;;;;;6.18;100.00;101380.00;5081050;28;20066;-59
2021/03/27 07:59:26;;;;;;;8.05;2.70;;;;;;;6.54;100.00;101386.00;5015809;28;20115;-58
2021/03/27 08:02:00;;;;;;;12.35;2.30;;;;;;;6.35;100.00;101396.38;5021122;28;20049;-59
2021/03/27 08:05:09;;;;;;;8.45;3.05;;;;;;;6.53;100.00;101400.25;5066273;28;20338;-61
2021/03/27 08:07:48;;;;;;;14.20;2.92;;;;;;;6.97;100.00;101405.56;5081762;28;20473;-58
2021/03/27 08:10:23;;;;;;;7.80;2.95;;;;;;;6.37;100.00;101407.72;5081838;28;20045;-61
2021/03/27 08:13:13;;;;;;;15.18;4.80;;;;;;;6.83;100.00;101401.41;5079330;28;20048;-59
2021/03/27 08:15:57;;;;;;;7.80;2.67;;;;;;;6.85;100.00;101401.28;5037420;28;20321;-59
2021/03/27 08:19:08;;;;;;;10.68;3.55;;;;;;;7.14;100.00;101425.44;5082052;28;20040;-58
2021/03/27 08:21:40;;;;;;;10.95;3.38;;;;;;;7.31;100.00;101416.06;5019680;28;20046;-59
2021/03/27 08:24:28;;;;;;;12.27;3.13;;;;;;;7.47;100.00;101430.75;5072887;28;20044;-59
2021/03/27 08:27:28;;;;;;;9.30;2.95;;;;;;;6.83;100.00;101416.47;5079413;28;20040;-60
2021/03/27 08:30:55;;;;;;;11.63;3.85;;;;;;;6.41;100.00;101445.47;5078103;28;20351;-60
2021/03/27 08:33:52;;;;;;;10.57;2.70;;;;;;;6.54;100.00;101447.03;5016842;28;20058;-61
2021/03/27 08:36:49;;;;;;;15.02;4.70;;;;;;;6.36;100.00;101456.44;5081425;28;20350;-59
2021/03/27 08:40:04;;;;;;;8.70;2.70;;;;;;;7.50;100.00;101451.75;5079839;28;20052;-58
2021/03/27 08:43:21;;;;;;;10.93;2.85;;;;;;;7.48;100.00;101465.16;5076637;28;20048;-61
2021/03/27 08:46:18;;;;;;;;;;;;;;;7.08;100.00;101463.13;5000800;28;20080;-59
2021/03/27 08:49:14;;;;;;;9.73;3.67;;;;;;;7.49;100.00;101479.31;5004057;28;19929;-59
2021/03/27 08:51:53;;;;;;;9.20;2.83;;;;;;;8.48;100.00;101479.88;5077756;28;20429;-62
2021/03/27 08:55:03;;;;;;;11.65;2.70;;;;;;;7.49;100.00;101466.88;5079997;28;20036;-59
2021/03/27 08:57:42;;;;;;;8.90;2.63;;;;;;;7.02;100.00;101491.03;5078332;28;20036;-58
2021/03/27 09:00:17;;;;;;;7.60;2.10;;;;;;;7.57;100.00;101491.00;5075304;28;20866;-58
2021/03/27 09:03:01;;;;;;;;;;;;;;;8.01;100.00;101498.03;5080195;28;20036;-59
2021/03/27 09:05:37;;;;;;;6.40;2.42;;;;;;;7.90;100.00;101486.50;5080056;28;19928;-59
2021/03/27 09:08:19;;;;;;;9.88;2.38;;;;;;;8.28;100.00;101511.66;5075438;28;20067;-61
2021/03/27 09:10:59;;;;;;;6.40;2.30;;;;;;;7.72;100.00;101519.94;5079172;28;20064;-62
2021/03/27 09:13:48;;;;;;;6.15;2.20;;;;;;;8.67;100.00;101510.22;5080459;28;20048;-62
2021/03/27 09:16:37;;;;;;;12.82;2.97;;;;;;;8.72;100.00;101523.97;5085011;28;20048;-61
2021/03/27 09:19:53;;;;;;;9.05;2.45;;;;;;;8.47;100.00;101520.75;5077733;28;20375;-61
2021/03/27 09:22:58;;;;;;;8.75;2.55;;;;;;;8.70;100.00;101524.06;5020229;28;20042;-61
2021/03/27 09:26:16;;;;;;;7.38;2.05;;;;;;;9.03;100.00;101538.09;5081387;28;20055;-59
2021/03/27 09:28:52;;;;;;;11.93;2.67;;;;;;;7.92;100.00;101540.41;5030994;28;20055;-62
2021/03/27 09:31:43;;;;;;;8.30;2.85;;;;;;;8.00;100.00;101550.41;5083781;28;20040;-59
2021/03/27 09:34:20;;;;;;;7.72;2.30;;;;;;;7.80;100.00;101556.53;5083146;28;20044;-59
2021/03/27 09:36:51;;;;;;;8.10;3.00;;;;;;;7.88;100.00;101551.41;5081659;28;20047;-59
2021/03/27 09:39:24;;;;;;;7.88;2.00;;;;;;;7.68;100.00;101571.69;5081874;28;20143;-59
2021/03/27 09:42:08;;;;;;;10.65;3.00;;;;;;;7.85;100.00;101557.00;5083568;28;20138;-59
2021/03/27 09:45:11;;;;;;;6.88;2.08;;;;;;;7.63;100.00;101579.22;5082141;28;20580;-60
2021/03/27 09:48:17;;;;;;;7.20;1.92;;;;;;;7.71;100.00;101582.06;5081614;28;20040;-60
2021/03/27 09:50:51;;;;;;;8.98;2.83;;;;;;;8.26;100.00;101587.28;5084750;28;20044;-60
2021/03/27 09:53:30;;;;;;;8.13;2.28;;;;;;;8.69;100.00;101598.78;5083392;28;20047;-60
2021/03/27 09:56:02;;;;;;;11.52;3.47;;;;;;;9.19;100.00;101593.53;5082622;28;20052;-60
2021/03/27 09:58:39;;;;;;;3.45;1.40;;;;;;;9.72;100.00;101576.38;5077748;28;20040;-60
2021/03/27 10:01:30;;;;;;;13.95;4.03;;;;;;;8.76;100.00;101599.94;5083945;28;20044;-60
2021/03/27 10:04:09;;;;;;;5.93;2.08;;;;;;;9.38;100.00;101591.91;5085576;28;20056;-60
2021/03/27 10:07:03;;;;;;;5.78;1.90;;;;;;;9.16;100.00;101612.47;5085265;28;20056;-61
2021/03/27 10:09:48;;;;;;;6.20;2.00;;;;;;;9.55;100.00;101619.75;5081407;28;20059;-60
2021/03/27 10:12:18;;;;;;;10.50;1.90;;;;;;;9.10;100.00;101623.66;5085760;28;20040;-60
2021/03/27 10:14:50;;;;;;;5.90;1.98;;;;;;;8.04;100.00;101625.47;5085099;28;20044;-60
2021/03/27 10:17:25;;;;;;;5.18;2.53;;;;;;;7.82;100.00;101631.72;5080190;28;20206;-60
2021/03/27 10:19:57;;;;;;;11.85;2.40;;;;;;;8.66;100.00;101620.34;5079782;28;20045;-60
2021/03/27 10:22:33;;;;;;;9.40;2.20;;;;;;;8.78;100.00;101635.28;5084819;28;20048;-59
2021/03/27 10:25:09;;;;;;;12.02;2.97;;;;;;;8.90;100.00;101644.91;5086961;28;20054;-59
2021/03/27 10:27:53;;;;;;;6.45;2.10;;;;;;;8.43;100.00;101633.75;5078562;28;20040;-59
2021/03/27 10:30:24;;;;;;;7.75;1.70;;;;;;;7.92;100.00;101644.13;5079964;28;20051;-59
2021/03/27 10:33:07;;;;;;;6.20;1.83;;;;;;;8.55;100.00;101648.75;5085965;28;20327;-59
2021/03/27 10:36:04;;;;;;;6.50;2.03;;;;;;;8.80;100.00;101654.63;5081893;28;20040;-59
2021/03/27 10:39:08;;;;;;;5.47;1.70;;;;;;;8.50;100.00;101647.44;5078811;28;20048;-59
2021/03/27 10:41:46;;;;;;;7.28;2.65;;;;;;;9.08;100.00;101649.59;5084217;28;20047;-59
2021/03/27 10:44:20;;;;;;;6.90;1.80;;;;;;;9.73;100.00;101658.09;5080962;28;20482;-59
2021/03/27 10:46:50;;;;;;;5.93;2.17;;;;;;;9.51;100.00;101663.66;5083610;28;20036;-60
2021/03/27 10:49:39;;;;;;;6.90;2.45;;;;;;;9.60;100.00;101654.84;5083140;28;20044;-60
2021/03/27 10:52:38;;;;;;;4.30;1.50;;;;;;;9.95;100.00;101666.84;5084413;28;20048;-60
2021/03/27 10:55:57;;;;;;;2.83;1.50;;;;;;;9.98;100.00;101667.41;5079354;28;20063;-61
2021/03/27 10:59:00;;;;;;;5.15;1.83;;;;;;;9.97;100.00;101668.41;5077946;28;20044;-61
2021/03/27 11:01:52;;;;;;;4.60;1.80;;;;;;;9.72;100.00;101660.91;5085259;28;20048;-61
2021/03/27 11:04:47;;;;;;;3.65;1.67;;;;;;;10.37;100.00;101671.97;5082375;28;20050;-61
2021/03/27 11:07:47;;;;;;;4.53;2.28;;;;;;;8.77;100.00;101676.19;5081797;28;20248;-61
2021/03/27 11:10:41;;;;;;;5.57;1.83;;;;;;;9.33;100.00;101666.09;5080017;28;20131;-60
2021/03/27 11:13:39;;;;;;;7.25;2.55;;;;;;;9.41;100.00;101669.81;5082795;28;20048;-61
2021/03/27 11:16:19;;;;;;;4.35;1.60;;;;;;;10.19;100.00;101685.13;5028796;28;20451;-60
2021/03/27 11:19:01;;;;;;;8.88;1.55;;;;;;;10.05;100.00;101688.19;5081663;28;20062;-62
2021/03/27 11:21:44;;;;;;;8.57;3.30;;;;;;;8.54;100.00;101686.97;5082601;28;20044;-61
2021/03/27 11:24:23;;;;;;;6.38;1.90;;;;;;;9.50;100.00;101691.28;5079938;28;20070;-61
2021/03/27 11:27:23;;;;;;;4.78;2.53;;;;;;;9.69;100.00;101704.69;5082085;28;20036;-60
2021/03/27 11:29:58;;;;;;;10.52;2.95;;;;;;;9.38;94.00;101699.38;5062807;28;20067;-61
2021/03/27 11:32:30;;;;;;;8.02;2.88;;;;;;;9.98;81.46;101702.09;5081972;28;20343;-61
2021/03/27 11:35:01;;;;;;;10.38;2.65;;;;;;;10.59;91.21;101702.88;5081226;28;20157;-61
2021/03/27 11:37:38;;;;;;;10.90;4.88;;;;;;;10.06;83.60;101701.41;5082924;28;20040;-61
2021/03/27 11:40:15;;;;;;;6.55;2.08;;;;;;;9.81;96.67;101708.13;5079087;28;20052;-61
2021/03/27 11:42:48;;;;;;;10.45;4.03;;;;;;;11.35;100.00;101720.75;5080216;28;20047;-61
2021/03/27 11:45:19;;;;;;;12.43;6.40;;;;;;;10.48;91.79;101700.34;5079262;28;20051;-61
2021/03/27 11:47:59;;;;;;;6.95;2.45;;;;;;;11.52;73.77;101712.91;5080366;28;20101;-61
2021/03/27 11:50:44;;;;;;;5.60;1.55;;;;;;;11.65;68.01;101704.53;5083030;28;20044;-61
2021/03/27 11:53:36;;;;;;;7.00;2.95;;;;;;;10.88;75.93;101712.69;5077511;28;20048;-61
2021/03/27 11:56:19;;;;;;;9.63;3.20;;;;;;;11.50;89.96;101710.38;5083705;28;20048;-61
2021/03/27 12:01:51;;;;;;;10.32;2.03;;;;;;;11.93;70.43;101710.72;5056358;28;20043;-61
2021/03/27 12:04:43;;;;;;;9.05;2.20;;;;;;;11.82;81.97;101710.94;5084447;28;20051;-61
2021/03/27 12:07:15;;;;;;;5.47;2.05;;;;;;;12.25;77.82;101719.28;5083147;28;20040;-61
2021/03/27 12:09:47;;;;;;;9.70;3.08;;;;;;;11.48;84.84;101715.06;5078865;28;20040;-61
2021/03/27 12:12:32;;;;;;;7.13;1.70;;;;;;;10.53;88.16;101721.28;5079393;28;20044;-61
2021/03/27 12:15:10;;;;;;;10.20;2.47;;;;;;;9.93;100.00;101727.50;5080352;28;20048;-60
2021/03/27 12:17:48;;;;;;;7.60;1.80;;;;;;;9.45;100.00;101732.53;5082763;28;20036;-61
2021/03/27 12:20:28;;;;;;;5.38;1.70;;;;;;;9.25;100.00;101734.25;5076455;28;20040;-61
2021/03/27 12:23:02;;;;;;;7.70;2.00;;;;;;;9.00;100.00;101743.53;5078960;28;20067;-61
2021/03/27 12:25:45;;;;;;;7.93;2.00;;;;;;;9.00;100.00;101737.34;5082221;28;20324;-61
2021/03/27 12:28:19;;;;;;;6.65;1.88;;;;;;;10.26;100.00;101736.13;5080717;28;20059;-63
2021/03/27 12:30:52;;;;;;;6.95;2.50;;;;;;;12.09;100.00;101736.03;5082416;28;20044;-61
2021/03/27 12:33:30;;;;;;;10.68;3.15;;;;;;;9.35;100.00;101730.81;5081950;28;20053;-61